Wetterdaten: Woche 10.09.18 - 16.09.18 (KW37)
Datum Zeit Temp. A. Feuchte A. Luftdruck Regen Wind Richtung Taupunkt Windchill Windben
10.09.2018 00:00 16,1 C 77 % 1021,0 hPa 0,0 l/m 0,0 km/h N 12,1 C 16,1 C 4,8 km/h
10.09.2018 01:00 15,4 C 77 % 1021,0 hPa 0,0 l/m 0,0 km/h N 11,4 C 15,4 C 0,8 km/h
10.09.2018 02:00 14,5 C 79 % 1021,1 hPa 0,0 l/m 0,0 km/h N 10,9 C 14,5 C 1,6 km/h
10.09.2018 03:00 13,9 C 79 % 1021,3 hPa 0,0 l/m 0,0 km/h N 10,3 C 13,9 C 0,8 km/h
10.09.2018 04:00 13,0 C 80 % 1021,1 hPa 0,0 l/m 0,0 km/h N 9,7 C 13,0 C 1,6 km/h
10.09.2018 05:00 12,6 C 80 % 1021,0 hPa 0,0 l/m 0,0 km/h N 9,3 C 12,6 C 0,0 km/h
10.09.2018 06:00 12,2 C 80 % 1021,3 hPa 0,0 l/m 0,0 km/h N 8,8 C 12,2 C 0,4 km/h
10.09.2018 07:00 12,4 C 80 % 1021,6 hPa 0,0 l/m 0,0 km/h N 9,0 C 12,4 C 0,0 km/h
10.09.2018 08:00 14,4 C 80 % 1022,0 hPa 0,0 l/m 0,0 km/h N 10,9 C 14,4 C 0,0 km/h
10.09.2018 09:00 17,1 C 79 % 1022,4 hPa 0,0 l/m 0,0 km/h N 13,5 C 17,1 C 1,2 km/h
10.09.2018 10:00 21,8 C 65 % 1022,2 hPa 0,0 l/m 2,1 km/h N 14,9 C 21,8 C 8,1 km/h
10.09.2018 11:00 23,3 C 58 % 1022,1 hPa 0,0 l/m 5,0 km/h N 14,5 C 23,3 C 14,1 km/h
10.09.2018 12:00 24,4 C 53 % 1021,8 hPa 0,0 l/m 3,8 km/h N 14,0 C 24,4 C 14,1 km/h
10.09.2018 13:00 24,8 C 48 % 1021,6 hPa 0,0 l/m 5,4 km/h N 12,9 C 24,7 C 18,5 km/h
10.09.2018 14:00 24,9 C 48 % 1021,2 hPa 0,0 l/m 5,4 km/h N 13,2 C 24,8 C 16,1 km/h
10.09.2018 15:00 24,9 C 48 % 1021,0 hPa 0,0 l/m 4,1 km/h N 13,2 C 24,9 C 12,9 km/h
10.09.2018 16:00 25,0 C 49 % 1020,7 hPa 0,0 l/m 3,8 km/h N 13,6 C 25,0 C 16,5 km/h
10.09.2018 17:00 25,0 C 47 % 1020,6 hPa 0,0 l/m 2,1 km/h N 12,9 C 25,0 C 10,9 km/h
10.09.2018 18:00 24,5 C 47 % 1020,7 hPa 0,0 l/m 0,7 km/h N 12,4 C 24,5 C 6,0 km/h
10.09.2018 19:00 22,7 C 53 % 1020,7 hPa 0,0 l/m 0,0 km/h N 12,5 C 22,7 C 0,0 km/h
10.09.2018 20:00 19,5 C 62 % 1021,1 hPa 0,0 l/m 0,0 km/h N 12,0 C 19,5 C 0,0 km/h
10.09.2018 21:00 18,1 C 66 % 1021,3 hPa 0,0 l/m 0,0 km/h N 11,6 C 18,1 C 0,0 km/h
10.09.2018 22:00 17,8 C 66 % 1021,5 hPa 0,0 l/m 0,0 km/h N 11,4 C 17,8 C 0,0 km/h
10.09.2018 23:00 18,0 C 66 % 1021,3 hPa 0,0 l/m 0,0 km/h N 11,7 C 18,0 C 2,0 km/h
11.09.2018 00:00 18,4 C 65 % 1021,3 hPa 0,0 l/m 0,1 km/h N 11,7 C 18,4 C 1,6 km/h
11.09.2018 01:00 17,5 C 70 % 1021,4 hPa 0,0 l/m 0,0 km/h N 11,9 C 17,5 C 0,8 km/h
11.09.2018 02:00 17,1 C 72 % 1021,3 hPa 0,0 l/m 0,0 km/h N 12,0 C 17,1 C 0,4 km/h
11.09.2018 03:00 17,5 C 71 % 1021,5 hPa 0,0 l/m 0,0 km/h N 12,1 C 17,5 C 0,0 km/h
11.09.2018 04:00 17,6 C 72 % 1021,6 hPa 0,0 l/m 0,0 km/h N 12,4 C 17,6 C 0,0 km/h
11.09.2018 05:00 18,1 C 70 % 1021,5 hPa 0,0 l/m 0,1 km/h N 12,6 C 18,1 C 3,6 km/h
11.09.2018 06:00 18,6 C 68 % 1021,7 hPa 0,0 l/m 0,0 km/h N 12,6 C 18,6 C 0,0 km/h
11.09.2018 07:00 18,4 C 70 % 1021,9 hPa 0,0 l/m 0,0 km/h N 12,9 C 18,4 C 0,0 km/h
11.09.2018 08:00 19,1 C 72 % 1022,2 hPa 0,0 l/m 0,0 km/h N 13,8 C 19,1 C 1,2 km/h
11.09.2018 09:00 20,9 C 67 % 1022,4 hPa 0,0 l/m 0,6 km/h N 14,6 C 20,9 C 4,4 km/h
11.09.2018 10:00 23,6 C 53 % 1022,6 hPa 0,0 l/m 4,8 km/h N 13,4 C 23,6 C 17,7 km/h
11.09.2018 11:00 25,2 C 47 % 1022,6 hPa 0,0 l/m 7,6 km/h N 13,0 C 24,9 C 24,9 km/h
11.09.2018 12:00 26,3 C 45 % 1022,5 hPa 0,0 l/m 6,9 km/h N 13,5 C 26,2 C 23,7 km/h
11.09.2018 13:00 26,6 C 44 % 1022,0 hPa 0,0 l/m 6,1 km/h N 13,5 C 26,6 C 22,1 km/h
11.09.2018 14:00 27,3 C 44 % 1021,5 hPa 0,0 l/m 6,1 km/h N 13,9 C 27,2 C 21,3 km/h
11.09.2018 15:00 27,2 C 43 % 1021,0 hPa 0,0 l/m 7,9 km/h N 13,6 C 26,9 C 25,8 km/h
11.09.2018 16:00 26,5 C 46 % 1021,0 hPa 0,0 l/m 5,8 km/h N 14,0 C 26,4 C 24,9 km/h
11.09.2018 17:00 25,8 C 49 % 1021,1 hPa 0,0 l/m 2,7 km/h N 14,4 C 25,8 C 14,5 km/h
11.09.2018 18:00 25,4 C 51 % 1020,9 hPa 0,0 l/m 1,3 km/h N 14,5 C 25,4 C 10,5 km/h
11.09.2018 19:00 24,2 C 54 % 1021,1 hPa 0,0 l/m 0,1 km/h N 14,3 C 24,2 C 3,2 km/h
11.09.2018 20:00 21,9 C 61 % 1021,7 hPa 0,0 l/m 0,0 km/h N 14,1 C 21,9 C 0,0 km/h
11.09.2018 21:00 20,1 C 68 % 1021,9 hPa 0,0 l/m 0,0 km/h N 14,0 C 20,1 C 0,0 km/h
11.09.2018 22:00 18,5 C 74 % 1022,0 hPa 0,0 l/m 0,0 km/h N 13,8 C 18,5 C 0,0 km/h
11.09.2018 23:00 17,2 C 77 % 1022,4 hPa 0,0 l/m 0,0 km/h N 13,1 C 17,2 C 0,0 km/h
12.09.2018 00:00 16,4 C 79 % 1022,8 hPa 0,0 l/m 0,1 km/h N 12,6 C 16,4 C 0,8 km/h
12.09.2018 01:00 15,9 C 79 % 1022,7 hPa 0,0 l/m 0,0 km/h N 12,2 C 15,9 C 1,2 km/h
12.09.2018 02:00 15,2 C 80 % 1022,6 hPa 0,0 l/m 0,0 km/h N 11,7 C 15,2 C 0,0 km/h
12.09.2018 03:00 14,5 C 80 % 1022,5 hPa 0,0 l/m 0,0 km/h N 11,1 C 14,5 C 0,0 km/h
12.09.2018 04:00 13,9 C 79 % 1022,4 hPa 0,0 l/m 0,0 km/h N 10,4 C 13,9 C 0,0 km/h
12.09.2018 05:00 13,5 C 80 % 1022,4 hPa 0,0 l/m 0,0 km/h N 10,0 C 13,5 C 0,8 km/h
12.09.2018 06:00 13,2 C 80 % 1022,6 hPa 0,0 l/m 0,0 km/h N 9,8 C 13,2 C 0,0 km/h
12.09.2018 07:00 13,1 C 80 % 1022,7 hPa 0,0 l/m 0,0 km/h N 9,8 C 13,1 C 0,0 km/h
12.09.2018 08:00 14,9 C 81 % 1022,4 hPa 0,0 l/m 0,0 km/h N 11,6 C 14,9 C 0,0 km/h
12.09.2018 09:00 17,4 C 81 % 1022,2 hPa 0,0 l/m 0,0 km/h N 14,0 C 17,4 C 0,4 km/h
12.09.2018 10:00 23,5 C 70 % 1022,1 hPa 0,0 l/m 0,0 km/h N 17,7 C 23,5 C 2,4 km/h
12.09.2018 11:00 27,3 C 56 % 1021,6 hPa 0,0 l/m 0,1 km/h N 17,6 C 27,3 C 3,6 km/h
12.09.2018 12:00 29,4 C 47 % 1021,0 hPa 0,0 l/m 0,2 km/h N 16,8 C 29,4 C 4,8 km/h
12.09.2018 13:00 30,5 C 45 % 1020,5 hPa 0,0 l/m 0,3 km/h N 17,3 C 30,5 C 4,4 km/h
12.09.2018 14:00 29,9 C 45 % 1019,8 hPa 0,0 l/m 0,3 km/h N 16,8 C 29,9 C 6,0 km/h
12.09.2018 15:00 29,5 C 46 % 1019,0 hPa 0,0 l/m 0,3 km/h N 16,5 C 29,5 C 5,6 km/h
12.09.2018 16:00 28,8 C 48 % 1018,5 hPa 0,0 l/m 0,4 km/h N 16,6 C 28,8 C 6,4 km/h
12.09.2018 17:00 28,0 C 49 % 1017,8 hPa 0,0 l/m 0,3 km/h N 16,3 C 28,0 C 5,2 km/h
12.09.2018 18:00 27,1 C 51 % 1017,4 hPa 0,0 l/m 0,1 km/h N 16,0 C 27,1 C 2,8 km/h
12.09.2018 19:00 25,2 C 57 % 1017,5 hPa 0,0 l/m 0,0 km/h N 16,0 C 25,2 C 0,0 km/h
12.09.2018 20:00 22,1 C 67 % 1017,7 hPa 0,0 l/m 0,0 km/h N 15,6 C 22,1 C 0,0 km/h
12.09.2018 21:00 19,9 C 74 % 1017,7 hPa 0,0 l/m 0,0 km/h N 15,0 C 19,9 C 0,4 km/h
12.09.2018 22:00 18,6 C 77 % 1017,4 hPa 0,0 l/m 0,0 km/h N 14,4 C 18,6 C 0,4 km/h
12.09.2018 23:00 18,0 C 78 % 1017,3 hPa 0,0 l/m 0,0 km/h N 14,0 C 18,0 C 0,0 km/h
13.09.2018 00:00 17,1 C 79 % 1016,9 hPa 0,0 l/m 0,0 km/h N 13,3 C 17,1 C 0,4 km/h
13.09.2018 01:00 16,5 C 79 % 1016,9 hPa 0,0 l/m 0,0 km/h N 12,9 C 16,5 C 0,0 km/h
13.09.2018 02:00 16,1 C 79 % 1016,6 hPa 0,0 l/m 0,0 km/h N 12,4 C 16,1 C 0,0 km/h
13.09.2018 03:00 15,2 C 79 % 1016,4 hPa 0,0 l/m 0,0 km/h N 11,7 C 15,2 C 0,4 km/h
13.09.2018 04:00 14,6 C 79 % 1016,2 hPa 0,0 l/m 0,0 km/h N 11,1 C 14,6 C 0,0 km/h
13.09.2018 05:00 14,4 C 79 % 1016,1 hPa 0,0 l/m 0,0 km/h N 10,8 C 14,4 C 0,0 km/h
13.09.2018 06:00 14,2 C 79 % 1016,0 hPa 0,0 l/m 0,0 km/h N 10,6 C 14,2 C 0,0 km/h
13.09.2018 07:00 14,3 C 80 % 1016,4 hPa 0,0 l/m 0,0 km/h N 10,8 C 14,3 C 0,0 km/h
13.09.2018 08:00 15,2 C 81 % 1016,6 hPa 0,0 l/m 0,0 km/h N 12,0 C 15,2 C 0,8 km/h
13.09.2018 09:00 17,9 C 80 % 1016,6 hPa 0,0 l/m 0,0 km/h N 14,4 C 17,9 C 2,0 km/h
13.09.2018 10:00 22,5 C 71 % 1016,4 hPa 0,0 l/m 0,1 km/h N 16,8 C 22,5 C 1,6 km/h
13.09.2018 11:00 25,6 C 60 % 1016,2 hPa 0,0 l/m 0,4 km/h N 17,2 C 25,6 C 5,6 km/h
13.09.2018 12:00 26,8 C 55 % 1015,8 hPa 0,0 l/m 0,2 km/h N 16,8 C 26,8 C 5,2 km/h
13.09.2018 13:00 27,8 C 53 % 1015,3 hPa 0,0 l/m 0,8 km/h N 17,2 C 27,8 C 6,8 km/h
13.09.2018 14:00 27,4 C 52 % 1014,7 hPa 0,0 l/m 1,7 km/h N 16,5 C 27,4 C 8,4 km/h
13.09.2018 15:00 27,6 C 51 % 1014,2 hPa 0,0 l/m 0,6 km/h N 16,4 C 27,6 C 6,4 km/h
13.09.2018 16:00 27,6 C 49 % 1013,7 hPa 0,0 l/m 0,4 km/h N 15,9 C 27,6 C 4,0 km/h
13.09.2018 17:00 27,3 C 51 % 1013,3 hPa 0,0 l/m 0,0 km/h N 16,1 C 27,3 C 1,6 km/h
13.09.2018 18:00 26,5 C 53 % 1013,2 hPa 0,0 l/m 0,0 km/h N 16,2 C 26,5 C 0,0 km/h
13.09.2018 19:00 25,1 C 60 % 1013,4 hPa 0,0 l/m 0,0 km/h N 16,7 C 25,1 C 0,4 km/h
13.09.2018 20:00 22,3 C 69 % 1013,9 hPa 0,0 l/m 0,0 km/h N 16,3 C 22,3 C 0,0 km/h
13.09.2018 21:00 20,4 C 75 % 1014,0 hPa 0,0 l/m 0,0 km/h N 15,7 C 20,4 C 0,0 km/h
13.09.2018 22:00 19,3 C 78 % 1014,0 hPa 0,0 l/m 0,0 km/h N 15,3 C 19,3 C 0,0 km/h
13.09.2018 23:00 18,8 C 79 % 1014,1 hPa 0,0 l/m 0,0 km/h N 15,0 C 18,8 C 0,8 km/h
14.09.2018 00:00 18,6 C 79 % 1014,1 hPa 0,0 l/m 0,0 km/h N 14,9 C 18,6 C 1,2 km/h
14.09.2018 01:00 18,5 C 79 % 1014,3 hPa 0,0 l/m 0,2 km/h N 14,8 C 18,5 C 1,6 km/h
14.09.2018 02:00 18,6 C 78 % 1014,3 hPa 0,0 l/m 0,1 km/h N 14,7 C 18,6 C 1,6 km/h
14.09.2018 03:00 18,6 C 78 % 1014,3 hPa 0,0 l/m 0,7 km/h N 14,7 C 18,6 C 6,4 km/h
14.09.2018 04:00 19,1 C 78 % 1014,2 hPa 0,0 l/m 0,1 km/h N 15,1 C 19,1 C 2,0 km/h
14.09.2018 05:00 18,9 C 79 % 1014,5 hPa 0,0 l/m 1,0 km/h N 15,1 C 18,9 C 7,2 km/h
14.09.2018 06:00 19,2 C 78 % 1014,7 hPa 0,0 l/m 1,3 km/h N 15,3 C 19,2 C 7,6 km/h
14.09.2018 07:00 19,5 C 78 % 1015,2 hPa 0,0 l/m 2,9 km/h N 15,6 C 19,5 C 8,8 km/h
14.09.2018 08:00 20,1 C 77 % 1015,7 hPa 0,0 l/m 5,4 km/h N 15,9 C 20,1 C 16,1 km/h
14.09.2018 09:00 19,8 C 77 % 1016,4 hPa 0,0 l/m 5,3 km/h N 15,6 C 19,8 C 16,9 km/h
14.09.2018 10:00 19,7 C 78 % 1017,0 hPa 0,0 l/m 4,7 km/h N 15,8 C 19,7 C 12,9 km/h
14.09.2018 11:00 20,2 C 78 % 1017,3 hPa 0,0 l/m 4,9 km/h N 16,1 C 20,2 C 15,7 km/h
14.09.2018 12:00 20,5 C 77 % 1017,2 hPa 0,0 l/m 4,7 km/h N 16,3 C 20,5 C 13,3 km/h
14.09.2018 13:00 21,0 C 76 % 1016,9 hPa 0,0 l/m 4,6 km/h N 16,7 C 21,0 C 13,3 km/h
14.09.2018 14:00 21,0 C 76 % 1017,0 hPa 0,0 l/m 3,4 km/h N 16,6 C 21,0 C 9,3 km/h
14.09.2018 15:00 20,4 C 78 % 1017,1 hPa 1,8 l/m 0,8 km/h N 16,3 C 20,4 C 5,6 km/h
14.09.2018 16:00 19,4 C 79 % 1017,3 hPa 1,3 l/m 0,3 km/h N 15,6 C 19,4 C 2,8 km/h
14.09.2018 17:00 18,6 C 79 % 1017,5 hPa 2,9 l/m 2,8 km/h N 14,9 C 18,6 C 11,3 km/h
14.09.2018 18:00 18,2 C 80 % 1017,4 hPa 1,0 l/m 3,6 km/h N 14,6 C 18,2 C 12,9 km/h
14.09.2018 19:00 18,0 C 80 % 1017,8 hPa 0,5 l/m 1,8 km/h N 14,5 C 18,0 C 8,0 km/h
14.09.2018 20:00 17,7 C 80 % 1018,3 hPa 0,3 l/m 0,2 km/h N 14,2 C 17,7 C 2,8 km/h
14.09.2018 21:00 17,5 C 80 % 1018,5 hPa 0,0 l/m 0,3 km/h N 14,0 C 17,5 C 3,6 km/h
14.09.2018 22:00 17,2 C 81 % 1018,6 hPa 0,0 l/m 0,1 km/h N 13,9 C 17,2 C 2,4 km/h
14.09.2018 23:00 17,2 C 81 % 1018,6 hPa 0,0 l/m 1,1 km/h N 13,9 C 17,2 C 4,8 km/h
15.09.2018 00:00 16,8 C 81 % 1018,8 hPa 0,0 l/m 1,6 km/h N 13,5 C 16,8 C 6,8 km/h
15.09.2018 01:00 16,8 C 81 % 1018,7 hPa 0,0 l/m 4,6 km/h N 13,5 C 16,8 C 11,3 km/h
15.09.2018 02:00 16,9 C 80 % 1018,6 hPa 0,0 l/m 3,6 km/h N 13,4 C 16,9 C 10,1 km/h
15.09.2018 03:00 16,6 C 80 % 1018,5 hPa 0,0 l/m 2,9 km/h N 13,2 C 16,6 C 7,6 km/h
15.09.2018 04:00 16,4 C 80 % 1018,6 hPa 0,0 l/m 2,3 km/h N 12,9 C 16,4 C 6,0 km/h
15.09.2018 05:00 16,0 C 80 % 1018,8 hPa 0,0 l/m 2,2 km/h N 12,5 C 16,0 C 6,0 km/h
15.09.2018 06:00 16,0 C 80 % 1019,1 hPa 0,0 l/m 1,8 km/h N 12,5 C 16,0 C 8,0 km/h
15.09.2018 07:00 16,2 C 80 % 1019,7 hPa 0,0 l/m 0,6 km/h N 12,7 C 16,2 C 5,6 km/h
15.09.2018 08:00 16,5 C 80 % 1020,2 hPa 0,0 l/m 0,6 km/h N 13,1 C 16,5 C 3,6 km/h
15.09.2018 09:00 18,0 C 80 % 1020,4 hPa 0,0 l/m 2,0 km/h N 14,4 C 18,0 C 8,4 km/h
15.09.2018 10:00 20,7 C 73 % 1020,5 hPa 0,0 l/m 5,6 km/h N 15,6 C 20,7 C 16,1 km/h
15.09.2018 11:00 21,5 C 68 % 1020,7 hPa 0,0 l/m 5,2 km/h N 15,3 C 21,5 C 15,3 km/h
15.09.2018 12:00 21,8 C 66 % 1020,9 hPa 0,0 l/m 5,2 km/h N 15,2 C 21,8 C 15,3 km/h
15.09.2018 13:00 22,6 C 64 % 1020,8 hPa 0,0 l/m 5,7 km/h N 15,3 C 22,6 C 16,5 km/h
15.09.2018 14:00 22,1 C 65 % 1020,8 hPa 0,0 l/m 5,0 km/h N 15,1 C 22,1 C 18,1 km/h
15.09.2018 15:00 22,5 C 63 % 1020,6 hPa 0,0 l/m 5,6 km/h N 15,1 C 22,5 C 16,5 km/h
15.09.2018 16:00 21,5 C 68 % 1020,6 hPa 0,0 l/m 4,0 km/h N 15,3 C 21,5 C 11,7 km/h
15.09.2018 17:00 21,3 C 70 % 1020,6 hPa 0,0 l/m 4,1 km/h N 15,5 C 21,3 C 12,1 km/h
15.09.2018 18:00 21,0 C 71 % 1020,8 hPa 0,0 l/m 1,4 km/h N 15,5 C 21,0 C 7,3 km/h
15.09.2018 19:00 19,9 C 74 % 1021,2 hPa 0,0 l/m 0,2 km/h N 15,2 C 19,9 C 3,6 km/h
15.09.2018 20:00 18,9 C 76 % 1021,9 hPa 0,0 l/m 0,0 km/h N 14,5 C 18,9 C 0,4 km/h
15.09.2018 21:00 18,5 C 78 % 1022,4 hPa 0,0 l/m 0,0 km/h N 14,5 C 18,5 C 0,4 km/h
15.09.2018 22:00 18,3 C 78 % 1022,7 hPa 0,0 l/m 0,0 km/h N 14,3 C 18,3 C 1,2 km/h
15.09.2018 23:00 17,8 C 79 % 1023,2 hPa 0,0 l/m 0,0 km/h N 14,0 C 17,8 C 0,0 km/h
16.09.2018 00:00 17,2 C 79 % 1023,5 hPa 0,0 l/m 0,0 km/h N 13,6 C 17,2 C 0,0 km/h
16.09.2018 01:00 16,5 C 80 % 1023,6 hPa 0,0 l/m 0,0 km/h N 13,0 C 16,5 C 0,8 km/h
16.09.2018 02:00 16,4 C 80 % 1023,7 hPa 0,0 l/m 0,6 km/h N 12,8 C 16,4 C 4,8 km/h
16.09.2018 03:00 16,3 C 80 % 1023,8 hPa 0,0 l/m 0,1 km/h N 12,8 C 16,3 C 1,2 km/h
16.09.2018 04:00 15,3 C 80 % 1023,8 hPa 0,0 l/m 0,1 km/h N 11,9 C 15,3 C 0,8 km/h
16.09.2018 05:00 14,8 C 80 % 1023,8 hPa 0,0 l/m 0,0 km/h N 11,4 C 14,8 C 0,0 km/h
16.09.2018 06:00 14,8 C 80 % 1023,9 hPa 0,0 l/m 0,0 km/h N 11,4 C 14,8 C 0,0 km/h
16.09.2018 07:00 15,0 C 80 % 1024,4 hPa 0,0 l/m 0,0 km/h N 11,6 C 15,0 C 0,0 km/h
16.09.2018 08:00 15,7 C 80 % 1024,7 hPa 0,0 l/m 0,1 km/h N 12,3 C 15,7 C 1,6 km/h
16.09.2018 09:00 16,4 C 80 % 1024,9 hPa 0,0 l/m 0,7 km/h N 12,8 C 16,4 C 4,8 km/h
16.09.2018 10:00 17,8 C 76 % 1024,9 hPa 0,0 l/m 0,7 km/h N 13,6 C 17,8 C 4,8 km/h
16.09.2018 11:00 19,0 C 74 % 1024,7 hPa 0,0 l/m 0,0 km/h N 14,3 C 19,0 C 1,6 km/h
16.09.2018 12:00 20,3 C 72 % 1024,2 hPa 0,0 l/m 0,3 km/h N 15,1 C 20,3 C 6,8 km/h
16.09.2018 13:00 22,3 C 67 % 1023,7 hPa 0,0 l/m 0,9 km/h N 15,8 C 22,3 C 6,8 km/h
16.09.2018 14:00 22,8 C 64 % 1023,1 hPa 0,0 l/m 0,8 km/h N 15,6 C 22,8 C 5,6 km/h
16.09.2018 15:00 23,0 C 63 % 1022,4 hPa 0,0 l/m 0,6 km/h N 15,5 C 23,0 C 7,6 km/h
16.09.2018 16:00 22,3 C 64 % 1021,8 hPa 0,0 l/m 0,5 km/h N 15,2 C 22,3 C 4,8 km/h
16.09.2018 17:00 21,9 C 67 % 1021,3 hPa 0,0 l/m 0,8 km/h N 15,3 C 21,9 C 4,8 km/h
16.09.2018 18:00 21,5 C 68 % 1020,9 hPa 0,0 l/m 0,6 km/h N 15,3 C 21,5 C 5,2 km/h
16.09.2018 19:00 20,2 C 70 % 1021,0 hPa 0,0 l/m 0,0 km/h N 14,6 C 20,2 C 0,0 km/h
16.09.2018 20:00 18,3 C 76 % 1021,3 hPa 0,0 l/m 0,0 km/h N 13,9 C 18,3 C 0,8 km/h
16.09.2018 21:00 17,0 C 79 % 1021,3 hPa 0,0 l/m 0,0 km/h N 13,2 C 17,0 C 0,4 km/h
16.09.2018 22:00 16,0 C 80 % 1020,9 hPa 0,0 l/m 0,0 km/h N 12,5 C 16,0 C 0,0 km/h
16.09.2018 23:00 15,1 C 80 % 1020,7 hPa 0,0 l/m 0,0 km/h N 11,6 C 15,1 C 0,0 km/h
Min-Datum _ 10.09.18 11.09.18 13.09.18 - 10.09.18 - 10.09.18 10.09.18 10.09.18
_ Min-Zeit 06:30 14:15 18:00 - 00:00 - 06:30 06:30 01:30
Minimum _ 12,1 C 42 % 1013,2 hPa - 0,0 km/h - 8,8 C 12,1 C 0,0 km/h
Max-Datum _ 12.09.18 13.09.18 16.09.18 14.09.18 11.09.18 - 12.09.18 12.09.18 11.09.18
_ Max-Zeit 13:15 08:30 09:30 17:15 11:30 - 10:45 13:15 15:15
Maximum _ 30,7 C 83 % 1025,0 hPa 2,9 l/m 10,2 km/h
N
- 18,3 C 30,7 C 29,0 km/h
N
Durchschnitt _ 19,8 C 70 % 1019,8 hPa #7,8 l/m 1,2 km/h N 13,8 C 19,8 C 5,2 km/h